Time Latitude Longitude Accuracy (66% radius in meters) Altitude (meters) Speed (km/hour) Bearing (degrees) Battery (%) GPS flag
06:44:57 57.203875 60.118196 3 309.12582197082 0.019673950970173 190.59593200684 89 1 delete
06:44:46 57.203879 60.118202 6 308.99606265806 0.011851109564304 190.59593200684 89 1 delete
06:44:35 57.203891 60.118229 3 308.65241698003 0.023700404912233 190.59593200684 89 1 delete
06:44:25 57.203890 60.118234 3 308.52684388223 0.042225226759911 190.59593200684 89 1 delete
06:44:14 57.203885 60.118240 3 308.3886932906 0.028441110625863 190.59593200684 89 1 delete
06:44:04 57.203883 60.118244 3 308.2643829132 0.045116897672415 190.59593200684 89 1 delete
06:43:53 57.203879 60.118231 3 308.01715938391 0.027935840189457 190.59593200684 89 1 delete
06:43:42 57.203882 60.118236 3 307.77070460016 0.023011218756437 190.59593200684 89 1 delete
06:43:36 57.203882 60.118241 3 307.69612202665 0.056316826492548 190.59593200684 89 1 delete
06:43:31 57.203881 60.118255 3 307.6338113486 0.025742739439011 190.59593200684 89 1 delete
06:43:21 57.203876 60.118288 3 307.02377411203 0.018849508836865 190.59593200684 89 1 delete
06:43:09 57.203867 60.118302 3 306.85847518786 0.049565020948648 190.59593200684 89 1 delete
06:42:57 57.203857 60.118353 4 306.69066565783 0.14482995867729 190.59593200684 89 1 delete
06:42:47 57.203844 60.118379 3 306.42060970558 0.029766643419862 190.59593200684 89 1 delete
06:42:37 57.203847 60.118373 3 306.15157998676 0.037786785513163 190.59593200684 89 1 delete
06:42:26 57.203846 60.118377 3 305.99824374862 0.037616048008204 190.59593200684 89 1 delete
06:42:16 57.203842 60.118380 3 305.86852513541 0.045958280563354 190.59593200684 89 1 delete
06:42:05 57.203887 60.118417 3 305.40383779895 0.29111707210541 165.02769470215 89 1 delete
06:41:55 57.203903 60.118442 3 304.92798167076 0.042310241609812 104.27155303955 89 1 delete
06:41:44 57.203912 60.118445 3 304.78961934786 0.044934090226889 104.27155303955 89 1 delete
06:41:34 57.203921 60.118443 3 304.66955405293 0.041215304285288 104.27155303955 89 1 delete
06:41:24 57.203928 60.118437 3 304.5563982469 0.016749866306782 104.27155303955 89 1 delete
06:41:13 57.203938 60.118436 3 304.44590438715 0.018678236752748 104.27155303955 89 1 delete
06:41:03 57.203943 60.118436 2 304.36402981717 0.032444775104523 104.27155303955 89 1 delete
06:40:53 57.203961 60.118460 3 303.97205687558 0.31807219982147 111.73662567139 89 1 delete
06:40:41 57.203951 60.118424 3 303.69465969557 0.021125197410583 65.450553894043 89 1 delete
06:40:31 57.203937 60.118399 3 303.65160852288 0.54605704545975 65.450553894043 89 1 delete
06:40:30 57.203931 60.118381 3 303.64806989922 0.93265813589096 65.450553894043 89 1 delete
06:40:23 57.203940 60.118210 3 303.42827697185 1.4349323511124 126.93527984619 89 1 delete
06:40:18 57.203957 60.118148 2 303.2989965553 3.0430626869202 140.8701171875 89 1 delete
06:40:16 57.203995 60.118071 2 303.26210155583 5.3767623901367 142.03340148926 89 1 delete
06:40:14 57.204061 60.117956 2 302.93610078165 5.4431180953979 139.02542114258 89 1 delete
06:40:12 57.204128 60.117830 2 302.62476738028 5.5049276351929 134.61595153809 89 1 delete
06:40:10 57.204195 60.117689 2 302.31428025371 5.5635099411011 137.25448608398 89 1 delete
06:40:08 57.204278 60.117587 2 302.00458366728 5.6415901184082 148.15689086914 89 1 delete
06:40:06 57.204376 60.117497 2 301.68423431676 5.6394939422607 153.8038482666 89 1 delete
06:40:04 57.204481 60.117411 2 301.35843778015 5.5166983604431 160.17129516602 89 1 delete
06:40:02 57.204609 60.117375 2 301.00159299832 5.3154726028442 180.27864074707 89 1 delete
06:40:00 57.204738 60.117389 3 300.59404732355 5.0745372772217 191.10438537598 89 1 delete
06:39:58 57.204864 60.117442 3 300.09200443978 4.7544841766357 194.98179626465 89 1 delete
06:39:56 57.204977 60.117492 3 299.44616579402 4.0799431800842 190.19332885742 89 1 delete
06:39:55 57.205032 60.117512 3 299.0322057926 3.506133556366 190.80821228027 89 1 delete
06:39:54 57.205075 60.117533 3 298.53247603457 2.897607088089 196.3335723877 89 1 delete
06:39:45 57.205174 60.117541 2 298.13746289575 2.7124819755554 101.32148742676 89 1 delete
06:39:44 57.205174 60.117492 2 298.09090986355 2.6854512691498 95.697830200195 89 1 delete
06:39:40 57.205157 60.117298 3 297.90634376599 2.6200025081635 61.927707672119 89 1 delete
06:39:37 57.205075 60.117193 3 297.76885215507 2.5272104740143 32.950374603271 89 1 delete
06:39:34 57.204977 60.117106 3 297.62998031526 2.2966773509979 29.672185897827 89 1 delete
06:39:30 57.204864 60.117023 3 297.44777372932 2.0358481407166 27.620439529419 89 1 delete
06:39:25 57.204762 60.116925 2 297.22426775537 1.9635148048401 57.863983154297 89 1 delete